Time;durP1;ratioP1;P1;durP2;ratioP2;P2;SDS_P1;SDS_P2;PMS_P1;PMS_P2;Temp;Humidity;BMP_temperature;BMP_pressure;BME280_temperature;BME280_humidity;BME280_pressure;Samples;Min_cycle;Max_cycle;Signal;HPM_P1;HPM_P2
2022/03/29 00:02:19;;;;;;;;;;;10.70;99.90;;;;;;5052116;28;19935;-73
2022/03/29 00:04:46;;;;;;;;;;;10.70;99.90;;;;;;5035048;28;19925;-73
2022/03/29 00:07:13;;;;;;;;;;;10.70;99.90;;;;;;5035556;28;19924;-71
2022/03/29 00:09:40;;;;;;;;;;;10.70;99.90;;;;;;5035576;28;19935;-73
2022/03/29 00:12:06;;;;;;;;;;;10.60;99.90;;;;;;5035222;28;20023;-74
2022/03/29 00:14:33;;;;;;;;;;;10.60;99.90;;;;;;5035110;28;19925;-71
2022/03/29 00:17:01;;;;;;;;;;;10.60;99.90;;;;;;5035391;28;19925;-74
2022/03/29 00:19:29;;;;;;;;;;;10.60;99.90;;;;;;5035098;28;20389;-74
2022/03/29 00:21:56;;;;;;;;;;;10.60;99.90;;;;;;5035308;28;20339;-73
2022/03/29 00:24:23;;;;;;;;;;;10.60;99.90;;;;;;5034833;28;19924;-74
2022/03/29 00:26:50;;;;;;;;;;;10.60;99.90;;;;;;5034655;28;19928;-73
2022/03/29 00:29:16;;;;;;;;;;;10.50;99.90;;;;;;5034907;28;19924;-74
2022/03/29 00:31:43;;;;;;;;;;;10.50;99.90;;;;;;5042051;28;19932;-74
2022/03/29 00:34:11;;;;;;;;;;;10.50;99.90;;;;;;5035270;28;19925;-73
2022/03/29 00:36:38;;;;;;;;;;;10.50;99.90;;;;;;5035130;28;19928;-73
2022/03/29 00:39:05;;;;;;;;;;;10.50;99.90;;;;;;5034771;28;19929;-73
2022/03/29 00:41:32;;;;;;;;;;;10.50;99.90;;;;;;5034823;28;19932;-74
2022/03/29 00:43:59;;;;;;;;;;;10.40;99.90;;;;;;5034451;28;19929;-74
2022/03/29 00:46:26;;;;;;;;;;;10.50;99.90;;;;;;5034818;28;19931;-73
2022/03/29 00:48:53;;;;;;;;;;;10.40;99.90;;;;;;5034851;28;19925;-73
2022/03/29 00:51:21;;;;;;;;;;;10.40;99.90;;;;;;5034491;28;20303;-73
2022/03/29 00:53:49;;;;;;;;;;;10.40;99.90;;;;;;5034402;28;19925;-73
2022/03/29 00:56:19;;;;;;;;;;;10.30;99.90;;;;;;5034570;28;19928;-74
2022/03/29 00:58:46;;;;;;;;;;;10.30;99.90;;;;;;5034574;28;19971;-71
2022/03/29 01:01:15;;;;;;;;;;;10.30;99.90;;;;;;5034525;28;19925;-73
2022/03/29 01:03:42;;;;;;;;;;;10.30;99.90;;;;;;5034390;28;19924;-74
2022/03/29 01:06:09;;;;;;;;;;;10.30;99.90;;;;;;5034241;28;19964;-72
2022/03/29 01:08:37;;;;;;;;;;;10.30;99.90;;;;;;5034263;28;20373;-71
2022/03/29 01:11:05;;;;;;;;;;;10.40;99.90;;;;;;5033891;28;19932;-70
2022/03/29 01:13:33;;;;;;;;;;;10.40;99.90;;;;;;5033457;28;20040;-73
2022/03/29 01:17:38;;;;;;;;;;;10.40;99.90;;;;;;5033264;28;19933;-74
2022/03/29 01:18:46;;;;;;;;;;;10.30;99.90;;;;;;5033904;28;19925;-72
2022/03/29 01:21:13;;;;;;;;;;;10.40;99.90;;;;;;5033758;28;19921;-74
2022/03/29 01:23:42;;;;;;;;;;;10.40;99.90;;;;;;5033600;28;19925;-72
2022/03/29 01:26:09;;;;;;;;;;;10.40;99.90;;;;;;5033774;28;19929;-74
2022/03/29 01:28:37;;;;;;;;;;;10.40;99.90;;;;;;5034142;28;19925;-73
2022/03/29 01:31:04;;;;;;;;;;;10.40;99.90;;;;;;5033707;28;19928;-71
2022/03/29 01:33:31;;;;;;;;;;;10.40;99.90;;;;;;5033514;28;19925;-74
2022/03/29 01:35:57;;;;;;;;;;;10.40;99.90;;;;;;5034038;28;19932;-72
2022/03/29 01:38:24;;;;;;;;;;;10.40;99.90;;;;;;5033532;28;19929;-71
2022/03/29 01:40:52;;;;;;;;;;;10.30;99.90;;;;;;5033941;28;19931;-74
2022/03/29 01:43:19;;;;;;;;;;;10.40;99.90;;;;;;5033959;28;20139;-72
2022/03/29 01:45:46;;;;;;;;;;;10.30;99.90;;;;;;5033716;28;19925;-73
2022/03/29 01:48:13;;;;;;;;;;;10.40;99.90;;;;;;5033857;28;19925;-70
2022/03/29 01:50:39;;;;;;;;;;;10.30;99.90;;;;;;5033382;28;19929;-72
2022/03/29 01:53:06;;;;;;;;;;;10.30;99.90;;;;;;5033497;28;19928;-71
2022/03/29 01:55:33;;;;;;;;;;;10.30;99.90;;;;;;5033161;28;20361;-73
2022/03/29 01:58:01;;;;;;;;;;;10.30;99.90;;;;;;5033782;28;20292;-72
2022/03/29 02:00:39;;;;;;;;;;;10.30;99.90;;;;;;5033563;28;19978;-72
2022/03/29 02:03:06;;;;;;;;;;;10.30;99.90;;;;;;5033791;28;19925;-73
2022/03/29 02:05:33;;;;;;;;;;;10.30;99.90;;;;;;5033159;28;20032;-74
2022/03/29 02:08:01;;;;;;;;;;;10.20;99.90;;;;;;5033482;28;20432;-71
2022/03/29 02:10:28;;;;;;;;;;;10.20;99.90;;;;;;5033106;28;19932;-73
2022/03/29 02:12:55;;;;;;;;;;;10.10;99.90;;;;;;5033100;28;19931;-73
2022/03/29 02:15:23;;;;;;;;;;;10.10;99.90;;;;;;5033364;28;19931;-72
2022/03/29 02:17:50;;;;;;;;;;;10.10;99.90;;;;;;5033420;28;19979;-73
2022/03/29 02:20:18;;;;;;;;;;;10.10;99.90;;;;;;5033088;28;19959;-73
2022/03/29 02:22:45;;;;;;;;;;;10.10;99.90;;;;;;5033574;28;19925;-74
2022/03/29 02:25:12;;;;;;;;;;;10.10;99.90;;;;;;5032687;28;19925;-73
2022/03/29 02:27:39;;;;;;;;;;;10.10;99.90;;;;;;5032947;28;19925;-71
2022/03/29 02:30:07;;;;;;;;;;;10.10;99.90;;;;;;5033373;28;20023;-71
2022/03/29 02:32:35;;;;;;;;;;;10.00;99.90;;;;;;5033535;28;19932;-74
2022/03/29 02:35:02;;;;;;;;;;;10.00;99.90;;;;;;5032803;28;19928;-73
2022/03/29 02:37:29;;;;;;;;;;;10.00;99.90;;;;;;5033046;28;19925;-73
2022/03/29 02:39:56;;;;;;;;;;;9.90;99.90;;;;;;5032950;28;19937;-73
2022/03/29 02:42:22;;;;;;;;;;;9.90;99.90;;;;;;5033346;28;19929;-74
2022/03/29 02:44:49;;;;;;;;;;;9.90;99.90;;;;;;5033051;28;19940;-74
2022/03/29 02:47:16;;;;;;;;;;;9.80;99.90;;;;;;5033191;28;19929;-73
2022/03/29 02:49:44;;;;;;;;;;;9.80;99.90;;;;;;5033110;28;19936;-71
2022/03/29 02:52:11;;;;;;;;;;;9.70;99.90;;;;;;5033428;28;19932;-74
2022/03/29 02:54:38;;;;;;;;;;;9.70;99.90;;;;;;5033144;28;19933;-72
2022/03/29 02:57:05;;;;;;;;;;;9.70;99.90;;;;;;5033577;28;19925;-73
2022/03/29 02:59:32;;;;;;;;;;;9.70;99.90;;;;;;5032748;28;19986;-73
2022/03/29 03:01:59;;;;;;;;;;;9.70;99.90;;;;;;5033025;28;19925;-74
2022/03/29 03:04:25;;;;;;;;;;;9.70;99.90;;;;;;5032829;28;20380;-72
2022/03/29 03:06:54;;;;;;;;;;;9.70;99.90;;;;;;5032879;28;19940;-73
2022/03/29 03:09:21;;;;;;;;;;;9.70;99.90;;;;;;5049740;28;19925;-74
2022/03/29 03:11:47;;;;;;;;;;;9.60;99.90;;;;;;5033127;28;19925;-72
2022/03/29 03:14:14;;;;;;;;;;;9.60;99.90;;;;;;5032595;28;19932;-74
2022/03/29 03:16:41;;;;;;;;;;;9.70;99.90;;;;;;5032841;28;19925;-74
2022/03/29 03:19:09;;;;;;;;;;;9.70;99.90;;;;;;5032418;28;19931;-74
2022/03/29 03:21:36;;;;;;;;;;;9.70;99.90;;;;;;5032521;28;19978;-74
2022/03/29 03:24:05;;;;;;;;;;;9.70;99.90;;;;;;5032757;28;19925;-71
2022/03/29 03:26:32;;;;;;;;;;;9.70;99.90;;;;;;5032558;28;19925;-74
2022/03/29 03:29:01;;;;;;;;;;;9.70;99.90;;;;;;5032426;28;19948;-74
2022/03/29 03:31:29;;;;;;;;;;;9.70;99.90;;;;;;5033068;28;19974;-73
2022/03/29 03:33:56;;;;;;;;;;;9.70;99.90;;;;;;5032190;28;19925;-73
2022/03/29 03:36:23;;;;;;;;;;;9.70;99.90;;;;;;5032733;28;19925;-74
2022/03/29 03:38:49;;;;;;;;;;;9.70;99.90;;;;;;5033215;28;19925;-72
2022/03/29 03:41:18;;;;;;;;;;;9.70;99.90;;;;;;5036105;28;20388;-74
2022/03/29 03:43:44;;;;;;;;;;;9.70;99.90;;;;;;5035939;28;19924;-74
2022/03/29 03:46:11;;;;;;;;;;;9.70;99.90;;;;;;5052742;28;20277;-72
2022/03/29 03:48:38;;;;;;;;;;;9.70;99.90;;;;;;5035098;28;19929;-73
2022/03/29 03:51:05;;;;;;;;;;;9.60;99.90;;;;;;5036132;28;19925;-72
2022/03/29 03:53:33;;;;;;;;;;;9.60;99.90;;;;;;5035859;28;19967;-73
2022/03/29 03:56:00;;;;;;;;;;;9.60;99.90;;;;;;5035880;28;19964;-74
2022/03/29 03:58:28;;;;;;;;;;;9.60;99.90;;;;;;5036396;28;20384;-73
2022/03/29 04:00:55;;;;;;;;;;;9.60;99.90;;;;;;5035297;28;19932;-74
2022/03/29 04:03:22;;;;;;;;;;;9.60;99.90;;;;;;5035477;28;19936;-72
2022/03/29 04:05:49;;;;;;;;;;;9.60;99.90;;;;;;5052621;28;19932;-71
2022/03/29 04:08:16;;;;;;;;;;;9.60;99.90;;;;;;5035769;28;20327;-72
2022/03/29 04:10:43;;;;;;;;;;;9.60;99.90;;;;;;5035341;28;19925;-72
2022/03/29 04:13:10;;;;;;;;;;;9.50;99.90;;;;;;5035770;28;19932;-72
2022/03/29 04:15:38;;;;;;;;;;;9.50;99.90;;;;;;5034779;28;20384;-71
2022/03/29 04:18:05;;;;;;;;;;;9.50;99.90;;;;;;5043240;28;19931;-71
2022/03/29 04:20:32;;;;;;;;;;;9.40;99.90;;;;;;5055269;28;19936;-73
2022/03/29 04:22:59;;;;;;;;;;;9.40;99.90;;;;;;5055332;28;19924;-74
2022/03/29 04:25:26;;;;;;;;;;;9.40;99.90;;;;;;5055178;28;19932;-73
2022/03/29 04:27:53;;;;;;;;;;;9.30;99.90;;;;;;5055168;28;19924;-74
2022/03/29 04:30:19;;;;;;;;;;;9.30;99.90;;;;;;5055043;28;19924;-73
2022/03/29 04:32:48;;;;;;;;;;;9.30;99.90;;;;;;5055177;28;20376;-72
2022/03/29 04:35:15;;;;;;;;;;;9.20;99.90;;;;;;5054935;28;19979;-71
2022/03/29 04:37:42;;;;;;;;;;;9.20;99.90;;;;;;5055402;28;19976;-74
2022/03/29 04:40:09;;;;;;;;;;;9.30;99.90;;;;;;5055381;28;20273;-74
2022/03/29 04:42:41;;;;;;;;;;;9.30;99.90;;;;;;5054861;28;19924;-70
2022/03/29 04:45:09;;;;;;;;;;;9.30;99.90;;;;;;5054829;28;20303;-72
2022/03/29 04:47:35;;;;;;;;;;;9.20;99.90;;;;;;5055227;28;19931;-73
2022/03/29 04:50:04;;;;;;;;;;;9.30;99.90;;;;;;5054292;28;19928;-74
2022/03/29 04:52:31;;;;;;;;;;;9.20;99.90;;;;;;5054516;28;20470;-71
2022/03/29 04:54:57;;;;;;;;;;;9.20;99.90;;;;;;5055152;28;19924;-71
2022/03/29 04:57:24;;;;;;;;;;;9.20;99.90;;;;;;5054628;28;19925;-74
2022/03/29 04:59:51;;;;;;;;;;;9.20;99.90;;;;;;5054304;28;19924;-74
2022/03/29 05:02:18;;;;;;;;;;;9.20;99.90;;;;;;5048329;28;19928;-74
2022/03/29 05:04:45;;;;;;;;;;;9.20;99.90;;;;;;5034346;28;19929;-73
2022/03/29 05:07:14;;;;;;;;;;;9.10;99.90;;;;;;5034709;28;20384;-73
2022/03/29 05:09:41;;;;;;;;;;;9.10;99.90;;;;;;5033880;28;20304;-74
2022/03/29 05:12:08;;;;;;;;;;;9.10;99.90;;;;;;5048275;28;20010;-73
2022/03/29 05:14:35;;;;;;;;;;;9.00;99.90;;;;;;5054118;28;19931;-77
2022/03/29 05:17:02;;;;;;;;;;;9.00;99.90;;;;;;5054503;28;19974;-74
2022/03/29 05:19:29;;;;;;;;;;;8.90;99.90;;;;;;5049829;28;20376;-72
2022/03/29 05:21:56;;;;;;;;;;;8.80;99.90;;;;;;5034391;28;19925;-73
2022/03/29 05:24:24;;;;;;;;;;;8.70;99.90;;;;;;5050802;28;19924;-74
2022/03/29 05:26:50;;;;;;;;;;;8.70;99.90;;;;;;5034233;28;19924;-71
2022/03/29 05:29:19;;;;;;;;;;;8.70;99.90;;;;;;5050507;28;19925;-71
2022/03/29 05:31:45;;;;;;;;;;;8.70;99.90;;;;;;5034238;28;19925;-76
2022/03/29 05:34:13;;;;;;;;;;;8.70;99.90;;;;;;5055601;28;19924;-73
2022/03/29 05:36:44;;;;;;;;;;;8.80;99.90;;;;;;5052349;28;19928;-73
2022/03/29 05:39:10;;;;;;;;;;;8.80;99.90;;;;;;5053496;28;19924;-72
2022/03/29 05:41:39;;;;;;;;;;;8.70;99.90;;;;;;5053903;28;19924;-71
2022/03/29 05:44:05;;;;;;;;;;;8.80;99.90;;;;;;5053360;28;20456;-72
2022/03/29 05:49:17;;;;;;;;;;;8.80;99.90;;;;;;5053255;28;19931;-71
2022/03/29 05:51:43;;;;;;;;;;;8.80;99.90;;;;;;5053839;28;19928;-72
2022/03/29 05:54:10;;;;;;;;;;;8.80;99.90;;;;;;5053929;28;19939;-78
2022/03/29 05:56:38;;;;;;;;;;;8.80;99.90;;;;;;5053144;28;20354;-73
2022/03/29 05:59:08;;;;;;;;;;;8.80;99.90;;;;;;5044464;28;19925;-73
2022/03/29 06:01:35;;;;;;;;;;;8.90;99.90;;;;;;5033939;28;20300;-70
2022/03/29 06:04:06;;;;;;;;;;;8.90;99.90;;;;;;5033001;28;19924;-71
2022/03/29 06:06:34;;;;;;;;;;;8.90;99.90;;;;;;5033832;28;19964;-74
2022/03/29 06:09:01;;;;;;;;;;;8.90;99.90;;;;;;5033284;28;19975;-70
2022/03/29 06:11:27;;;;;;;;;;;9.00;99.90;;;;;;5034219;28;19924;-70
2022/03/29 06:13:56;;;;;;;;;;;9.00;99.90;;;;;;5048333;28;19928;-72
2022/03/29 06:16:23;;;;;;;;;;;9.00;99.90;;;;;;5052308;28;19931;-72
2022/03/29 06:18:49;;;;;;;;;;;9.00;99.90;;;;;;5052998;28;19939;-69
2022/03/29 06:21:17;;;;;;;;;;;9.00;99.90;;;;;;5053112;28;19924;-72
2022/03/29 06:23:43;;;;;;;;;;;9.00;99.90;;;;;;5053045;28;20027;-70
2022/03/29 06:26:11;;;;;;;;;;;9.00;99.90;;;;;;5053209;28;20019;-73
2022/03/29 06:28:37;;;;;;;;;;;9.00;99.90;;;;;;5052795;28;19925;-70
2022/03/29 06:31:07;;;;;;;;;;;9.00;99.90;;;;;;5049587;28;20383;-73
2022/03/29 06:33:35;;;;;;;;;;;9.00;99.90;;;;;;5033115;28;20426;-73
2022/03/29 06:36:02;;;;;;;;;;;9.10;99.90;;;;;;5033528;28;19925;-73
2022/03/29 06:38:31;;;;;;;;;;;9.10;99.90;;;;;;5033262;28;19925;-72
2022/03/29 06:40:59;;;;;;;;;;;9.10;99.90;;;;;;5033403;28;19925;-72
2022/03/29 06:43:25;;;;;;;;;;;9.10;99.90;;;;;;5033280;28;20023;-72
2022/03/29 06:45:56;;;;;;;;;;;9.20;99.90;;;;;;5033077;28;19936;-72
2022/03/29 06:48:25;;;;;;;;;;;9.10;99.90;;;;;;5048762;28;19932;-72
2022/03/29 06:50:52;;;;;;;;;;;9.10;99.90;;;;;;5033140;28;19964;-71
2022/03/29 06:53:19;;;;;;;;;;;9.10;99.90;;;;;;5037760;28;19925;-72
2022/03/29 06:55:46;;;;;;;;;;;9.20;99.90;;;;;;5035698;28;19948;-73
2022/03/29 06:58:13;;;;;;;;;;;9.20;99.90;;;;;;5040813;28;20289;-73
2022/03/29 07:00:40;;;;;;;;;;;9.20;99.90;;;;;;5041696;28;19948;-73
2022/03/29 07:03:06;;;;;;;;;;;9.30;99.90;;;;;;5033814;28;19944;-74
2022/03/29 07:05:38;;;;;;;;;;;9.30;99.90;;;;;;5033275;28;19925;-73
2022/03/29 07:08:05;;;;;;;;;;;9.40;99.90;;;;;;5033266;28;19928;-73
2022/03/29 07:13:31;;;;;;;;;;;9.50;99.90;;;;;;4989476;28;19925;-72
2022/03/29 07:15:58;;;;;;;;;;;9.60;99.90;;;;;;4993413;28;19925;-71
2022/03/29 07:18:24;;;;;;;;;;;9.60;99.90;;;;;;5019567;28;20103;-71
2022/03/29 07:20:53;;;;;;;;;;;9.60;99.90;;;;;;5036986;28;20316;-76
2022/03/29 07:23:20;;;;;;;;;;;9.70;99.90;;;;;;5037270;28;19929;-74
2022/03/29 07:25:47;;;;;;;;;;;9.60;99.90;;;;;;5036966;28;19925;-72
2022/03/29 07:28:14;;;;;;;;;;;9.70;99.90;;;;;;5036720;28;19925;-72
2022/03/29 07:30:43;;;;;;;;;;;9.70;99.90;;;;;;5036772;28;19925;-72
2022/03/29 07:33:11;;;;;;;;;;;9.80;99.90;;;;;;5036568;28;19951;-72
2022/03/29 07:35:38;;;;;;;;;;;9.90;99.90;;;;;;5036541;28;20448;-73
2022/03/29 07:38:09;;;;;;;;;;;9.90;99.90;;;;;;5036578;28;19925;-72
2022/03/29 07:40:37;;;;;;;;;;;10.00;99.90;;;;;;5036443;28;20384;-73
2022/03/29 07:43:05;;;;;;;;;;;10.00;99.90;;;;;;5036660;28;20278;-73
2022/03/29 07:45:32;;;;;;;;;;;10.10;99.90;;;;;;5036413;28;19958;-73
2022/03/29 07:47:59;;;;;;;;;;;10.20;99.90;;;;;;5036790;28;19969;-72
2022/03/29 07:50:27;;;;;;;;;;;10.30;99.90;;;;;;5039887;28;19924;-72
2022/03/29 07:52:57;;;;;;;;;;;10.30;99.90;;;;;;5055608;28;19924;-72
2022/03/29 07:55:26;;;;;;;;;;;10.40;99.90;;;;;;5047107;28;19933;-72
2022/03/29 07:57:53;;;;;;;;;;;10.50;99.90;;;;;;5057026;28;20015;-72
2022/03/29 08:03:05;;;;;;;;;;;10.70;99.90;;;;;;5048609;28;19943;-72
2022/03/29 08:05:32;;;;;;;;;;;10.80;99.90;;;;;;5047282;28;19931;-72
2022/03/29 08:07:59;;;;;;;;;;;10.90;99.90;;;;;;5046521;28;19929;-73
2022/03/29 08:10:28;;;;;;;;;;;11.10;99.90;;;;;;5035647;28;19928;-72
2022/03/29 08:12:55;;;;;;;;;;;11.10;99.90;;;;;;5035765;28;19974;-72
2022/03/29 08:15:22;;;;;;;;;;;11.20;99.90;;;;;;5052024;28;20408;-72
2022/03/29 08:17:49;;;;;;;;;;;11.30;99.90;;;;;;5052499;28;19932;-72
2022/03/29 08:20:16;;;;;;;;;;;11.30;99.90;;;;;;5035215;28;20451;-71
2022/03/29 08:22:44;;;;;;;;;;;11.40;99.90;;;;;;5035372;28;19931;-72
2022/03/29 08:25:13;;;;;;;;;;;11.50;99.90;;;;;;5034991;28;19928;-72
2022/03/29 08:27:41;;;;;;;;;;;11.50;99.90;;;;;;5035257;28;19925;-72
2022/03/29 08:30:08;;;;;;;;;;;11.60;99.90;;;;;;5035416;28;19925;-72
2022/03/29 08:32:35;;;;;;;;;;;11.70;99.90;;;;;;5035124;28;19935;-72
2022/03/29 08:35:02;;;;;;;;;;;11.80;99.90;;;;;;5035540;28;19925;-72
2022/03/29 08:37:29;;;;;;;;;;;11.90;99.90;;;;;;5035584;28;19925;-72
2022/03/29 08:39:56;;;;;;;;;;;11.90;99.90;;;;;;5043125;28;19971;-72
2022/03/29 08:42:24;;;;;;;;;;;11.90;99.90;;;;;;5036523;28;19932;-74
2022/03/29 08:44:52;;;;;;;;;;;12.00;99.90;;;;;;5035207;28;19925;-72
2022/03/29 08:47:19;;;;;;;;;;;12.00;99.90;;;;;;5052101;28;20373;-72
2022/03/29 08:49:49;;;;;;;;;;;12.10;99.90;;;;;;5035019;28;19929;-72
2022/03/29 08:52:17;;;;;;;;;;;12.20;99.90;;;;;;5034893;28;19935;-72
2022/03/29 08:54:44;;;;;;;;;;;12.20;99.90;;;;;;5034869;28;19925;-72
2022/03/29 08:57:11;;;;;;;;;;;12.40;99.90;;;;;;5048699;28;19924;-73
2022/03/29 08:59:40;;;;;;;;;;;12.50;99.90;;;;;;5054949;28;19967;-72
2022/03/29 09:02:12;;;;;;;;;;;12.80;99.90;;;;;;5055186;28;19936;-73
2022/03/29 09:04:40;;;;;;;;;;;12.90;99.90;;;;;;5054667;28;19932;-72
2022/03/29 09:07:07;;;;;;;;;;;13.10;99.90;;;;;;5055376;28;19933;-73
2022/03/29 09:09:34;;;;;;;;;;;13.00;99.90;;;;;;5054364;28;20011;-72
2022/03/29 09:12:11;;;;;;;;;;;13.00;99.90;;;;;;5039096;28;20357;-73
2022/03/29 09:14:50;;;;;;;;;;;12.90;99.90;;;;;;5034480;28;19932;-73
2022/03/29 09:17:30;;;;;;;;;;;13.20;99.90;;;;;;5034956;28;19932;-72
2022/03/29 09:19:58;;;;;;;;;;;13.40;99.90;;;;;;5034648;28;20311;-72
2022/03/29 09:22:35;;;;;;;;;;;13.70;99.90;;;;;;5034706;28;19933;-72
2022/03/29 09:25:02;;;;;;;;;;;13.80;99.90;;;;;;5034241;28;19932;-73
2022/03/29 09:27:29;;;;;;;;;;;13.80;99.90;;;;;;5042578;28;19925;-72
2022/03/29 09:30:06;;;;;;;;;;;14.00;99.90;;;;;;5047159;28;19932;-72
2022/03/29 09:32:35;;;;;;;;;;;14.10;99.90;;;;;;5033474;28;19925;-74
2022/03/29 09:35:08;;;;;;;;;;;14.10;99.90;;;;;;5096214;22;20345;-75
2022/03/29 09:37:35;;;;;;;;;;;14.10;99.90;;;;;;5074785;28;19963;-77
2022/03/29 09:40:02;;;;;;;;;;;14.10;99.90;;;;;;5076801;28;19955;-79
2022/03/29 09:42:59;;;;;;;;;;;14.10;99.90;;;;;;5080473;28;19924;-77
2022/03/29 09:45:38;;;;;;;;;;;14.10;99.90;;;;;;5059871;28;19936;-79
2022/03/29 09:48:20;;;;;;;;;;;14.20;99.90;;;;;;5068968;28;19932;-80
2022/03/29 09:50:49;;;;;;;;;;;14.40;99.90;;;;;;5064271;28;19924;-79
2022/03/29 09:53:30;;;;;;;;;;;14.50;99.90;;;;;;5060976;28;20387;-79
2022/03/29 09:56:00;;;;;;;;;;;14.60;99.90;;;;;;5060290;28;19925;-79
2022/03/29 09:58:27;;;;;;;;;;;14.70;99.90;;;;;;5076125;28;19932;-80
2022/03/29 10:00:55;;;;;;;;;;;14.80;99.90;;;;;;5052129;28;19953;-81
2022/03/29 10:03:24;;;;;;;;;;;14.90;99.90;;;;;;5060791;28;19992;-81
2022/03/29 10:05:54;;;;;;;;;;;15.00;99.90;;;;;;5048812;28;19968;-80
2022/03/29 10:11:07;;;;;;;;;;;15.40;99.90;;;;;;5063667;28;19932;-80
2022/03/29 10:13:36;;;;;;;;;;;15.60;99.90;;;;;;5050549;28;19925;-81
2022/03/29 10:16:03;;;;;;;;;;;15.70;99.90;;;;;;5062143;28;19928;-80
2022/03/29 10:18:30;;;;;;;;;;;15.80;99.90;;;;;;5049614;28;19929;-80
2022/03/29 10:21:00;;;;;;;;;;;16.00;99.90;;;;;;5057367;28;19928;-80
2022/03/29 10:23:28;;;;;;;;;;;16.00;99.90;;;;;;5065041;28;20024;-80
2022/03/29 10:25:55;;;;;;;;;;;16.10;99.90;;;;;;5055217;28;20008;-80
2022/03/29 10:28:25;;;;;;;;;;;16.10;99.90;;;;;;5047691;28;19928;-80
2022/03/29 10:30:53;;;;;;;;;;;16.20;99.90;;;;;;5051574;28;20392;-79
2022/03/29 10:33:22;;;;;;;;;;;16.30;99.90;;;;;;5053157;28;19932;-79
2022/03/29 10:36:07;;;;;;;;;;;16.50;99.90;;;;;;5056811;28;19928;-81
2022/03/29 10:38:53;;;;;;;;;;;16.60;99.90;;;;;;5050780;28;19924;-79
2022/03/29 10:41:39;;;;;;;;;;;16.80;99.90;;;;;;5050423;28;19928;-80
2022/03/29 10:44:08;;;;;;;;;;;17.00;99.90;;;;;;5065814;28;19925;-79
2022/03/29 10:46:39;;;;;;;;;;;16.80;99.90;;;;;;5064453;28;20020;-81
2022/03/29 10:49:20;;;;;;;;;;;16.90;99.90;;;;;;5041730;28;19935;-79
2022/03/29 10:51:47;;;;;;;;;;;17.00;99.90;;;;;;5062089;28;19974;-79
2022/03/29 10:54:27;;;;;;;;;;;17.20;99.90;;;;;;5055594;28;19932;-79
2022/03/29 10:56:58;;;;;;;;;;;17.30;99.90;;;;;;5061846;28;20303;-79
2022/03/29 10:59:27;;;;;;;;;;;17.50;99.90;;;;;;5052730;28;19931;-78
2022/03/29 11:02:10;;;;;;;;;;;17.40;99.90;;;;;;5061793;28;19974;-79
2022/03/29 11:04:38;;;;;;;;;;;17.40;99.90;;;;;;5066947;28;19932;-79
2022/03/29 11:07:12;;;;;;;;;;;17.50;99.90;;;;;;5061983;28;19924;-79
2022/03/29 11:09:40;;;;;;;;;;;17.80;99.90;;;;;;5052510;28;20384;-77
2022/03/29 11:12:07;;;;;;;;;;;18.10;99.90;;;;;;5058027;28;20296;-79
2022/03/29 11:14:38;;;;;;;;;;;18.40;99.90;;;;;;5058926;28;19924;-80
2022/03/29 11:17:25;;;;;;;;;;;18.50;99.90;;;;;;5061334;28;20011;-79
2022/03/29 11:19:53;;;;;;;;;;;18.80;99.90;;;;;;5049676;28;19925;-78
2022/03/29 11:22:23;;;;;;;;;;;18.80;99.90;;;;;;5055168;28;19967;-80
2022/03/29 11:24:50;;;;;;;;;;;18.90;99.90;;;;;;5062478;28;19931;-78
2022/03/29 11:27:21;;;;;;;;;;;19.50;99.90;;;;;;5059194;28;19924;-79
2022/03/29 11:29:49;;;;;;;;;;;19.70;99.90;;;;;;5064744;28;19925;-79
2022/03/29 11:32:17;;;;;;;;;;;20.00;99.90;;;;;;5051942;28;19925;-78
2022/03/29 11:34:44;;;;;;;;;;;20.10;99.90;;;;;;5059656;28;19929;-78
2022/03/29 11:37:26;;;;;;;;;;;20.00;99.90;;;;;;5062303;28;19924;-78
2022/03/29 11:39:53;;;;;;;;;;;19.70;99.90;;;;;;5058005;28;19931;-77
2022/03/29 11:42:19;;;;;;;;;;;19.50;99.90;;;;;;5051217;28;20402;-77
2022/03/29 11:44:48;;;;;;;;;;;19.30;99.90;;;;;;5051272;28;19932;-78
2022/03/29 11:47:16;;;;;;;;;;;19.30;99.90;;;;;;5061665;28;19924;-78
2022/03/29 11:49:45;;;;;;;;;;;19.30;99.90;;;;;;5047993;28;19925;-77
2022/03/29 11:52:13;;;;;;;;;;;19.50;99.90;;;;;;5056361;28;19925;-77
2022/03/29 11:54:41;;;;;;;;;;;19.70;99.90;;;;;;5047223;28;19935;-77
2022/03/29 11:57:18;;;;;;;;;;;19.50;99.90;;;;;;5052718;28;19947;-77
2022/03/29 11:59:45;;;;;;;;;;;19.20;99.90;;;;;;5049037;28;19947;-77
2022/03/29 12:02:11;;;;;;;;;;;19.20;99.90;;;;;;5052986;28;19932;-77
2022/03/29 12:04:40;;;;;;;;;;;18.80;99.90;;;;;;5058295;28;19924;-77
2022/03/29 12:07:06;;;;;;;;;;;18.50;99.90;;;;;;5061051;28;19925;-77
2022/03/29 12:09:33;;;;;;;;;;;18.10;99.90;;;;;;5067666;28;19925;-77
2022/03/29 12:12:02;;;;;;;;;;;18.00;99.90;;;;;;5072148;28;19936;-77
2022/03/29 12:14:28;;;;;;;;;;;18.20;99.90;;;;;;5070101;28;19947;-77
2022/03/29 12:16:58;;;;;;;;;;;18.50;99.90;;;;;;5059599;28;19925;-77
2022/03/29 12:19:26;;;;;;;;;;;19.50;99.90;;;;;;5058231;28;19979;-77
2022/03/29 12:21:56;;;;;;;;;;;19.40;99.90;;;;;;5055149;28;19928;-77
2022/03/29 12:24:23;;;;;;;;;;;19.40;99.90;;;;;;5071205;28;20024;-78
2022/03/29 12:26:51;;;;;;;;;;;19.40;99.90;;;;;;5056925;28;19924;-78
2022/03/29 12:29:19;;;;;;;;;;;18.90;99.90;;;;;;5058795;28;20392;-78
2022/03/29 12:31:46;;;;;;;;;;;18.30;99.90;;;;;;5056241;28;20024;-79
2022/03/29 12:34:15;;;;;;;;;;;17.90;99.90;;;;;;5049761;28;19925;-78
2022/03/29 12:36:42;;;;;;;;;;;17.60;99.90;;;;;;5049722;28;19929;-81
2022/03/29 12:39:10;;;;;;;;;;;17.40;99.90;;;;;;5060372;28;19978;-79
2022/03/29 12:41:38;;;;;;;;;;;17.20;99.90;;;;;;5045662;28;20463;-79
2022/03/29 12:44:06;;;;;;;;;;;16.90;99.90;;;;;;5059744;28;20384;-77
2022/03/29 12:46:34;;;;;;;;;;;16.80;99.90;;;;;;5059901;28;19925;-77
2022/03/29 12:49:01;;;;;;;;;;;16.50;99.90;;;;;;5065209;28;19925;-77
2022/03/29 12:51:28;;;;;;;;;;;16.30;99.90;;;;;;5064749;28;19932;-76
2022/03/29 12:53:56;;;;;;;;;;;16.10;99.90;;;;;;5065420;28;19925;-77
2022/03/29 12:56:31;;;;;;;;;;;16.00;99.90;;;;;;5060795;28;20380;-77
2022/03/29 12:58:58;;;;;;;;;;;15.80;99.90;;;;;;5065178;28;19928;-81
2022/03/29 13:01:26;;;;;;;;;;;15.60;99.90;;;;;;5047530;28;19932;-77
2022/03/29 13:03:53;;;;;;;;;;;15.70;99.90;;;;;;5049938;28;20289;-79
2022/03/29 13:06:19;;;;;;;;;;;15.80;99.90;;;;;;5057418;28;20342;-78
2022/03/29 13:08:46;;;;;;;;;;;15.70;99.90;;;;;;5056521;28;19931;-77
2022/03/29 13:11:17;;;;;;;;;;;15.70;99.90;;;;;;5054467;28;20399;-76
2022/03/29 13:14:02;;;;;;;;;;;15.80;99.90;;;;;;5054637;28;20387;-76
2022/03/29 13:16:29;;;;;;;;;;;15.90;99.90;;;;;;5053404;28;19925;-77
2022/03/29 13:18:56;;;;;;;;;;;16.10;99.90;;;;;;5052557;28;19924;-77
2022/03/29 13:21:23;;;;;;;;;;;16.30;99.90;;;;;;5052198;28;19929;-80
2022/03/29 13:23:51;;;;;;;;;;;16.70;99.90;;;;;;5048834;28;19936;-79
2022/03/29 13:26:19;;;;;;;;;;;17.10;99.90;;;;;;5047455;28;19925;-79
2022/03/29 13:28:48;;;;;;;;;;;17.60;99.90;;;;;;5047106;28;19925;-79
2022/03/29 13:31:16;;;;;;;;;;;18.00;99.90;;;;;;5052121;28;19924;-79
2022/03/29 13:33:43;;;;;;;;;;;18.00;99.90;;;;;;5047562;28;19938;-78
2022/03/29 13:36:11;;;;;;;;;;;17.80;99.90;;;;;;5051790;28;19932;-79
2022/03/29 13:38:38;;;;;;;;;;;17.40;99.90;;;;;;5058612;28;19933;-77
2022/03/29 13:41:06;;;;;;;;;;;17.50;99.90;;;;;;5055556;28;19931;-77
2022/03/29 13:43:33;;;;;;;;;;;17.40;99.90;;;;;;5059407;28;19951;-78
2022/03/29 13:46:02;;;;;;;;;;;17.60;99.90;;;;;;5051342;28;19948;-77
2022/03/29 13:48:29;;;;;;;;;;;17.90;99.90;;;;;;5048739;28;19992;-78
2022/03/29 13:50:56;;;;;;;;;;;18.10;99.90;;;;;;5049091;28;19925;-78
2022/03/29 13:53:23;;;;;;;;;;;18.00;99.90;;;;;;5047602;28;20020;-78
2022/03/29 13:55:50;;;;;;;;;;;17.70;99.90;;;;;;5051297;28;19924;-77
2022/03/29 13:58:18;;;;;;;;;;;17.20;99.90;;;;;;5046768;28;19925;-77
2022/03/29 14:00:48;;;;;;;;;;;17.00;99.90;;;;;;5065308;28;19928;-78
2022/03/29 14:03:17;;;;;;;;;;;16.80;99.90;;;;;;5055326;28;19967;-79
2022/03/29 14:05:45;;;;;;;;;;;16.70;99.90;;;;;;5056152;28;19989;-78
2022/03/29 14:08:13;;;;;;;;;;;16.80;99.90;;;;;;5040520;28;19928;-78
2022/03/29 14:10:40;;;;;;;;;;;17.00;99.90;;;;;;5045645;28;19925;-78
2022/03/29 14:13:08;;;;;;;;;;;17.20;99.90;;;;;;5051179;28;19934;-76
2022/03/29 14:15:36;;;;;;;;;;;17.10;99.90;;;;;;5054867;28;20376;-78
2022/03/29 14:18:08;;;;;;;;;;;17.20;99.90;;;;;;5059413;28;19935;-77
2022/03/29 14:20:36;;;;;;;;;;;17.70;99.90;;;;;;5065742;28;19925;-78
2022/03/29 14:23:03;;;;;;;;;;;17.80;99.90;;;;;;5047762;28;20527;-77
2022/03/29 14:25:33;;;;;;;;;;;17.80;99.90;;;;;;5045087;28;19939;-78
2022/03/29 14:28:00;;;;;;;;;;;17.70;99.90;;;;;;5055951;28;19924;-79
2022/03/29 14:30:27;;;;;;;;;;;17.60;99.90;;;;;;5054697;28;19955;-79
2022/03/29 14:32:54;;;;;;;;;;;17.60;99.90;;;;;;5053454;28;19924;-79
2022/03/29 14:35:21;;;;;;;;;;;17.60;99.90;;;;;;5056927;28;19925;-78
2022/03/29 14:37:49;;;;;;;;;;;17.60;99.90;;;;;;5051092;28;19925;-79
2022/03/29 14:40:18;;;;;;;;;;;17.90;99.90;;;;;;5049061;28;19925;-79